Time;durP1;ratioP1;P1;durP2;ratioP2;P2;SDS_P1;SDS_P2;PMS_P1;PMS_P2;Temp;Humidity;BMP_temperature;BMP_pressure;BME280_temperature;BME280_humidity;BME280_pressure;Samples;Min_cycle;Max_cycle;Signal;HPM_P1;HPM_P2
2021/08/05 00:17:48;;;;;;;2.17;1.98;;;;;;;;;;4317282;28;20222;-67
2021/08/05 00:20:14;;;;;;;1.70;1.60;;;;;;;;;;4190112;34;20102;-69
2021/08/05 00:22:40;;;;;;;1.52;1.42;;;;;;;;;;4180633;34;20129;-67
2021/08/05 00:25:07;;;;;;;4.22;2.15;;;;;;;;;;4180834;34;20118;-72
2021/08/05 00:27:32;;;;;;;2.60;2.10;;;;;;;;;;4187486;34;20121;-67
2021/08/05 00:29:58;;;;;;;2.45;2.20;;;;;;;;;;4184440;34;20497;-73
2021/08/05 00:32:24;;;;;;;4.18;2.37;;;;;;;;;;4187055;34;20118;-66
2021/08/05 00:34:50;;;;;;;2.30;2.00;;;;;;;;;;4178175;34;20550;-67
2021/08/05 00:37:16;;;;;;;2.30;2.10;;;;;;;;;;4186217;34;20133;-69
2021/08/05 00:39:42;;;;;;;3.67;2.25;;;;;;;;;;4179095;34;20157;-69
2021/08/05 00:42:08;;;;;;;4.53;2.67;;;;;;;;;;4191786;34;20133;-69
2021/08/05 00:44:36;;;;;;;7.10;2.78;;;;;;;;;;4190585;34;20212;-70
2021/08/05 00:47:04;;;;;;;3.03;2.72;;;;;;;;;;4177957;34;20110;-69
2021/08/05 00:49:30;;;;;;;6.65;2.50;;;;;;;;;;4165462;34;20506;-70
2021/08/05 00:51:57;;;;;;;5.10;2.92;;;;;;;;;;4176336;34;20121;-66
2021/08/05 00:54:24;;;;;;;5.65;2.87;;;;;;;;;;4165709;34;20101;-66
2021/08/05 00:56:50;;;;;;;4.43;3.33;;;;;;;;;;4178093;34;20122;-66
2021/08/05 00:59:16;;;;;;;4.35;3.30;;;;;;;;;;4178474;34;20126;-66
2021/08/05 01:02:00;;;;;;;4.20;3.15;;;;;;;;;;4166929;34;20141;-66
2021/08/05 01:04:26;;;;;;;3.03;2.63;;;;;;;;;;4179415;34;20130;-66
2021/08/05 01:07:16;;;;;;;7.15;3.25;;;;;;;;;;4167434;34;20219;-66
2021/08/05 01:09:55;;;;;;;3.55;2.75;;;;;;;;;;4178822;34;20109;-66
2021/08/05 01:12:43;;;;;;;4.78;2.60;;;;;;;;;;4179102;34;20290;-66
2021/08/05 01:15:16;;;;;;;4.95;2.95;;;;;;;;;;4190899;34;20095;-66
2021/08/05 01:17:47;;;;;;;4.97;2.67;;;;;;;;;;4178455;34;20102;-66
2021/08/05 01:20:16;;;;;;;6.80;3.33;;;;;;;;;;4167599;34;20213;-66
2021/08/05 01:22:54;;;;;;;3.37;2.60;;;;;;;;;;4167417;34;20117;-66
2021/08/05 01:25:38;;;;;;;4.22;2.58;;;;;;;;;;4179730;34;20553;-66
2021/08/05 01:28:04;;;;;;;2.97;2.42;;;;;;;;;;4167802;34;20535;-66
2021/08/05 01:30:30;;;;;;;2.85;2.58;;;;;;;;;;4178831;34;20616;-66
2021/08/05 01:32:56;;;;;;;3.80;3.10;;;;;;;;;;4178567;34;20118;-66
2021/08/05 01:35:22;;;;;;;3.70;2.83;;;;;;;;;;4178664;34;20140;-66
2021/08/05 01:37:48;;;;;;;3.22;2.37;;;;;;;;;;4178651;34;20110;-66
2021/08/05 01:40:14;;;;;;;4.15;2.55;;;;;;;;;;4178580;34;20209;-66
2021/08/05 01:42:40;;;;;;;3.83;2.85;;;;;;;;;;4178684;34;20234;-67
2021/08/05 01:45:09;;;;;;;6.60;2.50;;;;;;;;;;4167174;34;20130;-67
2021/08/05 01:47:37;;;;;;;2.67;2.47;;;;;;;;;;4167975;34;20290;-66
2021/08/05 01:50:04;;;;;;;6.30;2.95;;;;;;;;;;4178522;34;20122;-66
2021/08/05 01:52:30;;;;;;;5.05;3.08;;;;;;;;;;4178753;34;20126;-66
2021/08/05 01:54:56;;;;;;;3.95;2.58;;;;;;;;;;4178579;34;20194;-66
2021/08/05 01:57:22;;;;;;;3.17;2.47;;;;;;;;;;4178555;34;20105;-66
2021/08/05 01:59:48;;;;;;;4.15;2.62;;;;;;;;;;4191292;34;20485;-66
2021/08/05 02:02:14;;;;;;;4.12;2.90;;;;;;;;;;4191055;34;20133;-66
2021/08/05 02:04:45;;;;;;;2.50;2.28;;;;;;;;;;4180426;34;20122;-66
2021/08/05 02:07:28;;;;;;;4.43;2.53;;;;;;;;;;4176175;34;20124;-68
2021/08/05 02:09:56;;;;;;;3.22;2.60;;;;;;;;;;4177679;34;20185;-71
2021/08/05 02:12:22;;;;;;;3.90;2.50;;;;;;;;;;4164577;34;20145;-70
2021/08/05 02:14:50;;;;;;;3.25;2.62;;;;;;;;;;4164810;34;20466;-70
2021/08/05 02:17:16;;;;;;;3.67;2.65;;;;;;;;;;4164421;34;20118;-69
2021/08/05 02:19:42;;;;;;;4.60;2.47;;;;;;;;;;4176600;34;20514;-69
2021/08/05 02:22:08;;;;;;;3.10;2.65;;;;;;;;;;4176117;34;20502;-68
2021/08/05 02:24:35;;;;;;;2.83;2.60;;;;;;;;;;4164695;34;20145;-67
2021/08/05 02:27:00;;;;;;;3.80;2.45;;;;;;;;;;4164601;34;20251;-68
2021/08/05 02:29:27;;;;;;;2.60;2.40;;;;;;;;;;4165011;34;20130;-68
2021/08/05 02:31:53;;;;;;;5.68;2.62;;;;;;;;;;4178265;34;20519;-70
2021/08/05 02:34:20;;;;;;;5.45;2.70;;;;;;;;;;4178412;34;20282;-68
2021/08/05 02:36:46;;;;;;;5.35;2.75;;;;;;;;;;4178399;34;20477;-65
2021/08/05 02:39:12;;;;;;;7.90;2.87;;;;;;;;;;4178048;34;20156;-65
2021/08/05 02:41:37;;;;;;;6.07;3.10;;;;;;;;;;4178002;34;20122;-64
2021/08/05 02:44:04;;;;;;;5.20;2.83;;;;;;;;;;4177885;34;20130;-66
2021/08/05 02:46:30;;;;;;;4.18;2.72;;;;;;;;;;4178139;34;20129;-67
2021/08/05 02:48:56;;;;;;;5.60;3.10;;;;;;;;;;4178034;34;20181;-67
2021/08/05 02:51:56;;;;;;;3.47;2.42;;;;;;;;;;4178231;34;20102;-66
2021/08/05 02:55:07;;;;;;;4.18;2.80;;;;;;;;;;4169526;34;20572;-67
2021/08/05 02:57:33;;;;;;;3.95;3.00;;;;;;;;;;4169244;34;20125;-66
2021/08/05 02:59:58;;;;;;;2.47;2.12;;;;;;;;;;4166536;34;20537;-69
2021/08/05 03:02:25;;;;;;;4.12;3.10;;;;;;;;;;4169553;34;20137;-65
2021/08/05 03:04:51;;;;;;;4.90;2.37;;;;;;;;;;4164212;34;20126;-67
2021/08/05 03:07:18;;;;;;;4.40;2.67;;;;;;;;;;4164493;34;20098;-75
2021/08/05 03:09:44;;;;;;;7.05;2.90;;;;;;;;;;4165935;34;20525;-74
2021/08/05 03:12:10;;;;;;;5.32;3.12;;;;;;;;;;4177543;34;20161;-77
2021/08/05 03:14:36;;;;;;;8.82;2.50;;;;;;;;;;4188772;34;20535;-75
2021/08/05 03:17:02;;;;;;;4.55;2.50;;;;;;;;;;4188476;34;20213;-70
2021/08/05 03:19:28;;;;;;;8.38;2.90;;;;;;;;;;4188674;34;20477;-76
2021/08/05 03:21:54;;;;;;;3.22;2.72;;;;;;;;;;4175943;34;20122;-75
2021/08/05 03:24:20;;;;;;;4.40;2.58;;;;;;;;;;4188521;34;20123;-69
2021/08/05 03:26:46;;;;;;;2.22;2.03;;;;;;;;;;4186656;34;20136;-69
2021/08/05 03:29:11;;;;;;;3.40;2.42;;;;;;;;;;4163749;34;20095;-70
2021/08/05 03:31:37;;;;;;;4.03;3.00;;;;;;;;;;4176948;34;20098;-70
2021/08/05 03:34:03;;;;;;;3.55;2.42;;;;;;;;;;4164135;34;20223;-67
2021/08/05 03:36:29;;;;;;;3.12;2.50;;;;;;;;;;4176787;34;20205;-71
2021/08/05 03:38:55;;;;;;;7.75;2.80;;;;;;;;;;4180071;34;20121;-67
2021/08/05 03:41:21;;;;;;;2.87;2.20;;;;;;;;;;4181144;34;20122;-69
2021/08/05 03:43:47;;;;;;;3.87;2.33;;;;;;;;;;4181102;34;20233;-70
2021/08/05 03:46:13;;;;;;;1.60;1.50;;;;;;;;;;4181304;34;20106;-67
2021/08/05 03:48:39;;;;;;;6.53;2.67;;;;;;;;;;4168677;34;20698;-70
2021/08/05 03:51:05;;;;;;;2.20;2.00;;;;;;;;;;4181117;34;20557;-76
2021/08/05 03:53:34;;;;;;;4.10;2.50;;;;;;;;;;4186067;34;20098;-70
2021/08/05 03:56:01;;;;;;;4.85;2.10;;;;;;;;;;4194873;34;20145;-70
2021/08/05 03:58:27;;;;;;;5.90;2.78;;;;;;;;;;4194656;34;20625;-70
2021/08/05 04:00:53;;;;;;;3.75;2.22;;;;;;;;;;4194902;34;20137;-71
2021/08/05 04:03:19;;;;;;;2.97;2.50;;;;;;;;;;4182111;34;20126;-67
2021/08/05 04:05:44;;;;;;;5.78;2.30;;;;;;;;;;4194683;34;20216;-70
2021/08/05 04:08:10;;;;;;;2.50;2.05;;;;;;;;;;4194873;34;20130;-67
2021/08/05 04:10:36;;;;;;;4.12;2.30;;;;;;;;;;4181884;34;20524;-74
2021/08/05 04:13:02;;;;;;;4.00;2.28;;;;;;;;;;4181901;34;20193;-71
2021/08/05 04:15:28;;;;;;;5.03;2.25;;;;;;;;;;4194842;34;20224;-76
2021/08/05 04:17:54;;;;;;;2.78;2.10;;;;;;;;;;4179404;34;20196;-70
2021/08/05 04:20:21;;;;;;;5.97;3.08;;;;;;;;;;4180854;34;20134;-70
2021/08/05 04:22:48;;;;;;;7.75;2.17;;;;;;;;;;4180641;34;20127;-76
2021/08/05 04:25:14;;;;;;;4.00;2.50;;;;;;;;;;4179721;34;20201;-70
2021/08/05 04:27:40;;;;;;;2.75;2.25;;;;;;;;;;4174584;34;20466;-70
2021/08/05 04:30:09;;;;;;;3.72;2.25;;;;;;;;;;4177143;34;20121;-70
2021/08/05 04:32:35;;;;;;;3.12;2.12;;;;;;;;;;4166980;34;20627;-70
2021/08/05 04:35:02;;;;;;;3.97;2.83;;;;;;;;;;4167006;34;20197;-70
2021/08/05 04:37:27;;;;;;;3.17;2.37;;;;;;;;;;4166866;34;20110;-70
2021/08/05 04:39:53;;;;;;;9.82;2.35;;;;;;;;;;4167189;34;20123;-70
2021/08/05 04:42:19;;;;;;;2.53;2.22;;;;;;;;;;4166962;34;20223;-70
2021/08/05 04:44:45;;;;;;;2.80;2.12;;;;;;;;;;4177125;34;20115;-70
2021/08/05 04:47:11;;;;;;;6.90;2.87;;;;;;;;;;4166601;34;20223;-70
2021/08/05 04:49:37;;;;;;;10.50;2.83;;;;;;;;;;4164461;34;20295;-70
2021/08/05 04:52:05;;;;;;;3.70;2.10;;;;;;;;;;4164444;34;20123;-70
2021/08/05 04:54:33;;;;;;;5.12;2.20;;;;;;;;;;4171839;34;20086;-70
2021/08/05 04:57:00;;;;;;;2.25;1.75;;;;;;;;;;4178324;34;20126;-70
2021/08/05 04:59:26;;;;;;;1.80;1.70;;;;;;;;;;4178129;34;20113;-70
2021/08/05 05:01:52;;;;;;;2.62;1.83;;;;;;;;;;4176792;34;20117;-70
2021/08/05 05:04:18;;;;;;;5.35;2.33;;;;;;;;;;4178022;34;20102;-71
2021/08/05 05:06:43;;;;;;;4.05;1.90;;;;;;;;;;4176423;34;20514;-70
2021/08/05 05:09:09;;;;;;;4.35;1.92;;;;;;;;;;4176615;34;20153;-70
2021/08/05 05:11:35;;;;;;;3.65;2.30;;;;;;;;;;4175521;34;20630;-70
2021/08/05 05:14:01;;;;;;;1.85;1.75;;;;;;;;;;4171515;34;20212;-70
2021/08/05 05:16:27;;;;;;;2.65;2.40;;;;;;;;;;4172335;34;20208;-67
2021/08/05 05:18:53;;;;;;;2.12;1.83;;;;;;;;;;4191724;34;20117;-66
2021/08/05 05:21:19;;;;;;;2.85;2.00;;;;;;;;;;4170362;34;20477;-67
2021/08/05 05:23:45;;;;;;;4.82;2.37;;;;;;;;;;4177848;34;20150;-67
2021/08/05 05:26:11;;;;;;;3.87;2.37;;;;;;;;;;4164959;34;20427;-66
2021/08/05 05:28:37;;;;;;;3.12;2.20;;;;;;;;;;4166614;34;20123;-66
2021/08/05 05:31:03;;;;;;;3.80;2.70;;;;;;;;;;4178648;34;20549;-66
2021/08/05 05:33:29;;;;;;;4.85;2.90;;;;;;;;;;4178753;34;20147;-68
2021/08/05 05:35:55;;;;;;;4.45;2.35;;;;;;;;;;4191331;34;20110;-66
2021/08/05 05:38:21;;;;;;;3.80;2.50;;;;;;;;;;4191649;34;20207;-66
2021/08/05 05:40:47;;;;;;;9.32;2.37;;;;;;;;;;4178544;34;20157;-70
2021/08/05 05:43:13;;;;;;;7.87;2.20;;;;;;;;;;4191527;34;20532;-66
2021/08/05 05:45:39;;;;;;;11.25;2.70;;;;;;;;;;4190003;34;20194;-71
2021/08/05 05:48:07;;;;;;;3.17;1.87;;;;;;;;;;4164992;34;20134;-71
2021/08/05 05:50:32;;;;;;;2.55;2.20;;;;;;;;;;4177642;34;20183;-69
2021/08/05 05:52:58;;;;;;;1.55;1.45;;;;;;;;;;4177516;34;20458;-70
2021/08/05 05:55:24;;;;;;;3.92;1.85;;;;;;;;;;4164813;34;20230;-70
2021/08/05 05:57:50;;;;;;;3.35;1.92;;;;;;;;;;4177593;34;20101;-71
2021/08/05 06:00:16;;;;;;;2.35;1.80;;;;;;;;;;4177364;34;20107;-70
2021/08/05 06:02:42;;;;;;;2.62;1.90;;;;;;;;;;4164888;34;20534;-69
2021/08/05 06:05:09;;;;;;;1.62;1.52;;;;;;;;;;4177460;34;20538;-69
2021/08/05 06:07:48;;;;;;;2.33;2.12;;;;;;;;;;4177373;34;20110;-70
2021/08/05 06:10:16;;;;;;;1.92;1.80;;;;;;;;;;4177454;34;20134;-70
2021/08/05 06:12:42;;;;;;;3.70;2.65;;;;;;;;;;4169457;34;20680;-70
2021/08/05 06:15:09;;;;;;;5.18;2.67;;;;;;;;;;4191037;34;20133;-69
2021/08/05 06:17:35;;;;;;;3.40;2.00;;;;;;;;;;4177974;34;20219;-69
2021/08/05 06:20:02;;;;;;;3.70;2.22;;;;;;;;;;4190905;34;20144;-68
2021/08/05 06:22:28;;;;;;;2.85;2.00;;;;;;;;;;4178364;34;20101;-68
2021/08/05 06:24:54;;;;;;;5.12;2.20;;;;;;;;;;4178252;34;20129;-69
2021/08/05 06:27:22;;;;;;;5.72;2.08;;;;;;;;;;4178202;34;20118;-69
2021/08/05 06:29:49;;;;;;;1.92;1.70;;;;;;;;;;4190852;34;20114;-68
2021/08/05 06:32:16;;;;;;;2.75;1.70;;;;;;;;;;4190743;34;20131;-70
2021/08/05 06:34:41;;;;;;;2.83;2.22;;;;;;;;;;4191103;34;20121;-70
2021/08/05 06:37:07;;;;;;;6.95;1.90;;;;;;;;;;4190212;34;20122;-70
2021/08/05 06:39:33;;;;;;;6.30;1.70;;;;;;;;;;4190489;34;20117;-73
2021/08/05 06:41:59;;;;;;;2.65;2.08;;;;;;;;;;4178014;34;20117;-68
2021/08/05 06:44:25;;;;;;;2.30;2.10;;;;;;;;;;4178219;34;20094;-67
2021/08/05 06:46:51;;;;;;;2.15;1.95;;;;;;;;;;4185805;34;20110;-66
2021/08/05 06:49:17;;;;;;;2.20;2.00;;;;;;;;;;4175838;34;20114;-76
2021/08/05 06:51:43;;;;;;;2.75;2.00;;;;;;;;;;4175845;34;20214;-70
2021/08/05 06:54:09;;;;;;;3.22;1.40;;;;;;;;;;4177196;34;20145;-69
2021/08/05 06:56:35;;;;;;;1.65;1.52;;;;;;;;;;4176870;34;20118;-70
2021/08/05 06:59:01;;;;;;;2.28;1.92;;;;;;;;;;4164188;34;20543;-69
2021/08/05 07:01:27;;;;;;;3.30;1.95;;;;;;;;;;4175561;34;20114;-68
2021/08/05 07:03:53;;;;;;;3.72;1.80;;;;;;;;;;4176757;34;20201;-68
2021/08/05 07:06:19;;;;;;;2.92;2.00;;;;;;;;;;4176598;34;20118;-68
2021/08/05 07:08:45;;;;;;;3.60;1.85;;;;;;;;;;4176850;34;20125;-68
2021/08/05 07:11:12;;;;;;;2.78;1.75;;;;;;;;;;4175512;34;20506;-69
2021/08/05 07:13:38;;;;;;;3.22;2.10;;;;;;;;;;4176805;34;20212;-68
2021/08/05 07:16:04;;;;;;;11.48;2.03;;;;;;;;;;4190337;34;20121;-68
2021/08/05 07:18:30;;;;;;;6.97;2.33;;;;;;;;;;4190561;34;20130;-69
2021/08/05 07:20:58;;;;;;;2.15;1.65;;;;;;;;;;4190501;34;20702;-69
2021/08/05 07:23:24;;;;;;;1.55;1.45;;;;;;;;;;4190448;34;20093;-69
2021/08/05 07:25:50;;;;;;;2.40;1.80;;;;;;;;;;4177641;34;20108;-70
2021/08/05 07:28:16;;;;;;;2.17;1.60;;;;;;;;;;4177653;34;20133;-70
2021/08/05 07:30:43;;;;;;;2.22;1.92;;;;;;;;;;4190458;34;20193;-70
2021/08/05 07:33:09;;;;;;;2.10;1.80;;;;;;;;;;4177396;34;20479;-70
2021/08/05 07:35:35;;;;;;;1.70;1.60;;;;;;;;;;4177594;34;20125;-68
2021/08/05 07:38:01;;;;;;;2.22;1.37;;;;;;;;;;4177455;34;20525;-69
2021/08/05 07:40:27;;;;;;;7.57;2.75;;;;;;;;;;4177655;34;20109;-67
2021/08/05 07:42:54;;;;;;;2.37;1.60;;;;;;;;;;4177527;34;20102;-66
2021/08/05 07:45:20;;;;;;;2.53;1.55;;;;;;;;;;4177653;34;20184;-68
2021/08/05 07:47:46;;;;;;;3.12;1.50;;;;;;;;;;4177336;34;20137;-66
2021/08/05 07:50:14;;;;;;;2.78;1.52;;;;;;;;;;4190345;34;20206;-66
2021/08/05 07:52:41;;;;;;;1.67;1.27;;;;;;;;;;4190303;34;20197;-67
2021/08/05 07:55:07;;;;;;;2.05;1.37;;;;;;;;;;4190164;34;20283;-69
2021/08/05 07:57:34;;;;;;;1.60;1.50;;;;;;;;;;4190241;34;20195;-70
2021/08/05 08:00:00;;;;;;;1.70;1.60;;;;;;;;;;4177361;34;20129;-70
2021/08/05 08:02:27;;;;;;;2.20;1.92;;;;;;;;;;4177286;34;20206;-70
2021/08/05 08:04:54;;;;;;;2.22;1.52;;;;;;;;;;4190185;34;20121;-70
2021/08/05 08:07:20;;;;;;;3.25;2.08;;;;;;;;;;4177423;34;20133;-69
2021/08/05 08:09:46;;;;;;;1.77;1.50;;;;;;;;;;4190115;34;20514;-69
2021/08/05 08:12:12;;;;;;;5.15;1.73;;;;;;;;;;4176935;34;20137;-69
2021/08/05 08:14:38;;;;;;;1.65;1.42;;;;;;;;;;4189932;34;20122;-70
2021/08/05 08:17:04;;;;;;;1.70;1.60;;;;;;;;;;4189886;34;20141;-69
2021/08/05 08:19:30;;;;;;;2.10;1.75;;;;;;;;;;4189842;34;20293;-69
2021/08/05 08:21:56;;;;;;;1.40;1.30;;;;;;;;;;4176885;34;20122;-69
2021/08/05 08:24:23;;;;;;;3.97;1.77;;;;;;;;;;4190866;34;20117;-67
2021/08/05 08:26:49;;;;;;;5.28;1.33;;;;;;;;;;4191844;34;20121;-69
2021/08/05 08:29:16;;;;;;;9.35;1.55;;;;;;;;;;4192184;34;20118;-70
2021/08/05 08:31:43;;;;;;;2.37;1.87;;;;;;;;;;4168059;34;20106;-70
2021/08/05 08:34:09;;;;;;;2.28;1.48;;;;;;;;;;4191955;34;20126;-68
2021/08/05 08:36:35;;;;;;;3.00;1.35;;;;;;;;;;4191680;34;20545;-67
2021/08/05 08:39:02;;;;;;;1.20;1.20;;;;;;;;;;4179090;34;20202;-68
2021/08/05 08:41:30;;;;;;;1.70;1.60;;;;;;;;;;4191611;34;20121;-68
2021/08/05 08:43:56;;;;;;;1.20;1.10;;;;;;;;;;4179274;34;20099;-68
2021/08/05 08:46:22;;;;;;;3.20;1.90;;;;;;;;;;4167730;34;20132;-71
2021/08/05 08:48:52;;;;;;;1.75;1.60;;;;;;;;;;4167708;34;20102;-67
2021/08/05 08:51:18;;;;;;;1.40;1.30;;;;;;;;;;4191683;34;20490;-69
2021/08/05 08:53:44;;;;;;;2.78;1.80;;;;;;;;;;4179316;34;20205;-68
2021/08/05 08:56:10;;;;;;;1.85;1.30;;;;;;;;;;4179087;34;20154;-69
2021/08/05 08:58:43;;;;;;;2.12;1.90;;;;;;;;;;4179200;34;20128;-69
2021/08/05 09:01:09;;;;;;;4.57;2.20;;;;;;;;;;4179385;34;20126;-69
2021/08/05 09:03:35;;;;;;;1.65;1.55;;;;;;;;;;4191990;34;20129;-69
2021/08/05 09:06:01;;;;;;;5.12;1.60;;;;;;;;;;4178697;34;20205;-71
2021/08/05 09:08:27;;;;;;;2.30;1.65;;;;;;;;;;4178956;34;20133;-69
2021/08/05 09:10:58;;;;;;;1.70;1.60;;;;;;;;;;4178943;34;20237;-67
2021/08/05 09:13:24;;;;;;;3.42;1.65;;;;;;;;;;4191567;34;20117;-66
2021/08/05 09:15:50;;;;;;;2.00;1.50;;;;;;;;;;4167675;34;20482;-65
2021/08/05 09:18:29;;;;;;;1.95;1.77;;;;;;;;;;4191796;34;20118;-67
2021/08/05 09:21:06;;;;;;;1.20;1.10;;;;;;;;;;4191578;34;20178;-69
2021/08/05 09:23:45;;;;;;;1.65;1.50;;;;;;;;;;4178801;34;20122;-68
2021/08/05 09:26:44;;;;;;;7.32;1.52;;;;;;;;;;4191588;34;20102;-74
2021/08/05 09:29:21;;;;;;;1.73;1.20;;;;;;;;;;4191770;34;20122;-69
2021/08/05 09:31:51;;;;;;;1.48;1.37;;;;;;;;;;4179061;34;20121;-66
2021/08/05 09:34:19;;;;;;;2.62;1.80;;;;;;;;;;4191703;34;20559;-71
2021/08/05 09:36:46;;;;;;;3.35;1.65;;;;;;;;;;4178309;34;20134;-71
2021/08/05 09:39:22;;;;;;;1.77;1.62;;;;;;;;;;4192008;34;20097;-68
2021/08/05 09:41:53;;;;;;;1.98;1.58;;;;;;;;;;4191462;34;20116;-68
2021/08/05 09:44:19;;;;;;;1.73;1.62;;;;;;;;;;4178903;34;20110;-69
2021/08/05 09:46:45;;;;;;;1.27;1.17;;;;;;;;;;4178642;34;20448;-69
2021/08/05 09:49:17;;;;;;;1.95;1.60;;;;;;;;;;4191542;34;20097;-69
2021/08/05 09:51:44;;;;;;;3.25;1.98;;;;;;;;;;4191646;34;20129;-66
2021/08/05 09:54:10;;;;;;;1.58;1.30;;;;;;;;;;4178698;34;20205;-70
2021/08/05 09:56:39;;;;;;;2.05;1.85;;;;;;;;;;4178759;34;20225;-67
2021/08/05 09:59:13;;;;;;;5.82;1.75;;;;;;;;;;4191660;34;20101;-70
2021/08/05 10:02:02;;;;;;;1.95;1.25;;;;;;;;;;4191067;34;20110;-64
2021/08/05 10:04:32;;;;;;;2.20;1.67;;;;;;;;;;4191635;34;20166;-70
2021/08/05 10:07:00;;;;;;;1.62;1.52;;;;;;;;;;4191154;34;20110;-68
2021/08/05 10:09:26;;;;;;;1.85;1.48;;;;;;;;;;4191527;34;20143;-71
2021/08/05 10:11:52;;;;;;;1.80;1.70;;;;;;;;;;4191371;34;20109;-68
2021/08/05 10:14:20;;;;;;;1.40;1.30;;;;;;;;;;4168550;34;20238;-64
2021/08/05 10:16:46;;;;;;;1.55;1.45;;;;;;;;;;4164934;34;20122;-67
2021/08/05 10:19:11;;;;;;;8.35;1.60;;;;;;;;;;4177589;34;20517;-64
2021/08/05 10:21:37;;;;;;;1.85;1.27;;;;;;;;;;4153500;34;20129;-67
2021/08/05 10:24:04;;;;;;;1.52;1.42;;;;;;;;;;4164810;34;20141;-69
2021/08/05 10:26:29;;;;;;;2.92;1.62;;;;;;;;;;4164848;34;20121;-65
2021/08/05 10:28:55;;;;;;;1.35;1.20;;;;;;;;;;4153484;34;20214;-67
2021/08/05 10:31:21;;;;;;;3.15;1.50;;;;;;;;;;4164718;34;20118;-70
2021/08/05 10:33:48;;;;;;;1.45;1.12;;;;;;;;;;4153346;34;20222;-70
2021/08/05 10:36:14;;;;;;;1.98;1.80;;;;;;;;;;4164581;34;20189;-69
2021/08/05 10:38:41;;;;;;;1.55;1.45;;;;;;;;;;4164607;34;20579;-67
2021/08/05 10:41:07;;;;;;;1.45;1.35;;;;;;;;;;4164484;34;20518;-66
2021/08/05 10:43:35;;;;;;;1.90;1.42;;;;;;;;;;4164605;34;20205;-66
2021/08/05 10:46:01;;;;;;;4.07;1.12;;;;;;;;;;4164517;34;20483;-66
2021/08/05 10:48:27;;;;;;;1.10;1.00;;;;;;;;;;4153459;34;20349;-66
2021/08/05 10:50:53;;;;;;;2.80;1.50;;;;;;;;;;4164242;34;20113;-65
2021/08/05 10:53:31;;;;;;;2.42;1.10;;;;;;;;;;4164373;34;20118;-65
2021/08/05 10:56:33;;;;;;;1.67;1.25;;;;;;;;;;4176940;34;20119;-64
2021/08/05 10:59:10;;;;;;;1.27;1.20;;;;;;;;;;4134285;34;20104;-65
2021/08/05 11:01:43;;;;;;;3.42;1.40;;;;;;;;;;4171713;34;20137;-64
2021/08/05 11:04:28;;;;;;;1.23;1.12;;;;;;;;;;4177080;34;20114;-66
2021/08/05 11:06:54;;;;;;;1.80;1.05;;;;;;;;;;4164418;34;20225;-64
2021/08/05 11:09:30;;;;;;;2.05;1.30;;;;;;;;;;4164339;34;20531;-65
2021/08/05 11:11:57;;;;;;;1.17;1.17;;;;;;;;;;4164049;34;20118;-64
2021/08/05 11:14:26;;;;;;;4.55;1.60;;;;;;;;;;4174574;34;20542;-66
2021/08/05 11:16:58;;;;;;;1.95;1.52;;;;;;;;;;4190335;34;20090;-67
2021/08/05 11:19:33;;;;;;;1.42;1.33;;;;;;;;;;4177832;34;20414;-65
2021/08/05 11:22:34;;;;;;;1.30;1.20;;;;;;;;;;4178443;34;20094;-65
2021/08/05 11:25:00;;;;;;;1.20;1.20;;;;;;;;;;4190648;34;20192;-67
2021/08/05 11:27:26;;;;;;;1.50;1.40;;;;;;;;;;4177643;34;20117;-68
2021/08/05 11:29:52;;;;;;;1.48;1.37;;;;;;;;;;4177960;34;20127;-69
2021/08/05 11:32:39;;;;;;;1.27;1.17;;;;;;;;;;4190575;34;20208;-70
2021/08/05 11:35:06;;;;;;;1.10;1.10;;;;;;;;;;4190474;34;20605;-67
2021/08/05 11:37:33;;;;;;;2.97;1.35;;;;;;;;;;4190387;34;20106;-67
2021/08/05 11:40:00;;;;;;;6.05;1.67;;;;;;;;;;4177754;34;20094;-67
2021/08/05 11:42:27;;;;;;;3.47;2.03;;;;;;;;;;4177343;34;20670;-67
2021/08/05 11:44:59;;;;;;;1.33;1.30;;;;;;;;;;4190455;34;20130;-68
2021/08/05 11:47:34;;;;;;;1.40;1.23;;;;;;;;;;4190118;34;20181;-67
2021/08/05 11:50:03;;;;;;;1.92;1.35;;;;;;;;;;4190221;34;20518;-68
2021/08/05 11:52:29;;;;;;;1.25;1.02;;;;;;;;;;4190112;34;20597;-66
2021/08/05 11:55:07;;;;;;;1.40;1.30;;;;;;;;;;4190145;34;20148;-66
2021/08/05 11:57:43;;;;;;;1.12;1.10;;;;;;;;;;4190095;34;20129;-66
2021/08/05 12:00:13;;;;;;;1.40;1.30;;;;;;;;;;4179195;34;20448;-64
2021/08/05 12:02:39;;;;;;;1.00;1.00;;;;;;;;;;4192127;34;20109;-63
2021/08/05 12:05:05;;;;;;;1.45;1.30;;;;;;;;;;4179442;34;20122;-67
2021/08/05 12:07:38;;;;;;;1.98;1.15;;;;;;;;;;4191901;34;20098;-66
2021/08/05 12:10:14;;;;;;;2.67;1.45;;;;;;;;;;4179314;34;20618;-67
2021/08/05 12:12:45;;;;;;;3.65;1.35;;;;;;;;;;4179406;34;20221;-68
2021/08/05 12:15:16;;;;;;;1.45;1.25;;;;;;;;;;4192451;34;20095;-67
2021/08/05 12:17:43;;;;;;;1.30;1.20;;;;;;;;;;4191786;34;20118;-69
2021/08/05 12:20:13;;;;;;;1.30;1.20;;;;;;;;;;4192067;34;20100;-67
2021/08/05 12:22:44;;;;;;;1.50;1.40;;;;;;;;;;4192208;34;20140;-67
2021/08/05 12:26:00;;;;;;;1.37;1.15;;;;;;;;;;4179663;34;20090;-67
2021/08/05 12:28:27;;;;;;;1.92;1.40;;;;;;;;;;4192026;34;20521;-67
2021/08/05 12:30:57;;;;;;;1.83;1.50;;;;;;;;;;4191799;34;20114;-66
2021/08/05 12:33:27;;;;;;;1.70;1.20;;;;;;;;;;4179541;34;20474;-67
2021/08/05 12:36:19;;;;;;;1.35;1.25;;;;;;;;;;4191903;34;20129;-68
2021/08/05 12:38:51;;;;;;;1.27;1.17;;;;;;;;;;4191860;34;20209;-69
2021/08/05 12:41:35;;;;;;;3.10;1.40;;;;;;;;;;4191793;34;20098;-68
2021/08/05 12:44:14;;;;;;;3.90;1.30;;;;;;;;;;4179361;34;20227;-69
2021/08/05 12:46:48;;;;;;;1.45;1.20;;;;;;;;;;4179619;34;20134;-67
2021/08/05 12:49:14;;;;;;;1.25;1.20;;;;;;;;;;4179166;34;20423;-67
2021/08/05 12:51:41;;;;;;;3.03;1.10;;;;;;;;;;4178852;34;20133;-68
2021/08/05 12:54:16;;;;;;;1.20;1.00;;;;;;;;;;4179070;34;20633;-68
2021/08/05 12:56:47;;;;;;;1.37;1.27;;;;;;;;;;4191574;34;20447;-68
2021/08/05 12:59:13;;;;;;;1.30;1.20;;;;;;;;;;4191984;34;20121;-68
2021/08/05 13:01:39;;;;;;;2.67;1.60;;;;;;;;;;4179007;34;20133;-68
2021/08/05 13:04:21;;;;;;;1.23;1.20;;;;;;;;;;4178962;34;20609;-66
2021/08/05 13:06:57;;;;;;;1.85;1.25;;;;;;;;;;4179157;34;20228;-65
2021/08/05 13:09:26;;;;;;;2.35;1.35;;;;;;;;;;4191583;34;20512;-65
2021/08/05 13:11:53;;;;;;;1.40;1.10;;;;;;;;;;4190688;34;20553;-65
2021/08/05 13:14:33;;;;;;;6.68;1.65;;;;;;;;;;4179105;34;20438;-65
2021/08/05 13:17:06;;;;;;;1.17;1.15;;;;;;;;;;4191691;34;20118;-65
2021/08/05 13:19:53;;;;;;;4.32;1.27;;;;;;;;;;4191560;34;20213;-64
2021/08/05 13:22:40;;;;;;;1.00;1.00;;;;;;;;;;4178685;34;20102;-65
2021/08/05 13:25:08;;;;;;;1.10;1.10;;;;;;;;;;4179065;34;20208;-66
2021/08/05 13:27:34;;;;;;;2.87;1.10;;;;;;;;;;4191383;34;20150;-65
2021/08/05 13:30:01;;;;;;;1.85;1.30;;;;;;;;;;4191333;34;20144;-66
2021/08/05 13:32:27;;;;;;;2.15;1.60;;;;;;;;;;4177504;34;20109;-68
2021/08/05 13:34:57;;;;;;;1.42;1.10;;;;;;;;;;4167673;34;20459;-68
2021/08/05 13:37:25;;;;;;;1.05;1.05;;;;;;;;;;4176499;34;20206;-75
2021/08/05 13:39:55;;;;;;;1.40;1.30;;;;;;;;;;4185387;34;20112;-75
2021/08/05 13:42:21;;;;;;;1.60;1.50;;;;;;;;;;4169843;34;20573;-74
2021/08/05 13:44:48;;;;;;;1.42;1.33;;;;;;;;;;4177983;34;20118;-66
2021/08/05 13:47:14;;;;;;;1.65;1.37;;;;;;;;;;4189845;34;20141;-66
2021/08/05 13:49:41;;;;;;;1.70;1.20;;;;;;;;;;4182990;34;20115;-66
2021/08/05 13:52:07;;;;;;;1.50;1.40;;;;;;;;;;4175255;34;20110;-66
2021/08/05 13:54:37;;;;;;;1.20;1.10;;;;;;;;;;4177652;34;20704;-66
2021/08/05 13:57:03;;;;;;;1.30;1.20;;;;;;;;;;4171340;34;20197;-66
2021/08/05 13:59:29;;;;;;;3.37;1.40;;;;;;;;;;4191313;34;20129;-66
2021/08/05 14:01:55;;;;;;;1.73;1.48;;;;;;;;;;4191091;34;20105;-66
2021/08/05 14:04:22;;;;;;;1.10;1.10;;;;;;;;;;4191120;34;20138;-68
2021/08/05 14:06:48;;;;;;;4.53;1.35;;;;;;;;;;4176921;34;20103;-67
2021/08/05 14:09:14;;;;;;;1.40;1.30;;;;;;;;;;4163994;34;20232;-68
2021/08/05 14:11:41;;;;;;;1.20;1.20;;;;;;;;;;4177758;34;20503;-64
2021/08/05 14:14:06;;;;;;;1.30;1.20;;;;;;;;;;4177723;34;20552;-71
2021/08/05 14:16:32;;;;;;;1.12;1.10;;;;;;;;;;4164791;34;20111;-72
2021/08/05 14:18:58;;;;;;;1.40;1.30;;;;;;;;;;4177491;34;20616;-75
2021/08/05 14:21:24;;;;;;;1.23;1.20;;;;;;;;;;4177375;34;20538;-74
2021/08/05 14:23:50;;;;;;;1.12;1.05;;;;;;;;;;4165138;34;20209;-73
2021/08/05 14:26:16;;;;;;;1.60;1.50;;;;;;;;;;4164749;34;20549;-73
2021/08/05 14:28:42;;;;;;;1.65;1.42;;;;;;;;;;4164865;34;20621;-73
2021/08/05 14:31:09;;;;;;;1.42;1.20;;;;;;;;;;4177777;34;20106;-73
2021/08/05 14:33:36;;;;;;;4.22;1.37;;;;;;;;;;4177631;34;20114;-74
2021/08/05 14:36:02;;;;;;;1.23;1.12;;;;;;;;;;4164712;34;20222;-74
2021/08/05 14:38:28;;;;;;;5.07;1.45;;;;;;;;;;4177415;34;20125;-72
2021/08/05 14:40:54;;;;;;;4.45;1.60;;;;;;;;;;4165916;34;20129;-75
2021/08/05 14:43:20;;;;;;;1.42;1.30;;;;;;;;;;4162680;34;20611;-75
2021/08/05 14:45:46;;;;;;;2.65;1.62;;;;;;;;;;4178163;34;20186;-72
2021/08/05 14:48:12;;;;;;;1.50;1.30;;;;;;;;;;4191444;34;20113;-70
2021/08/05 14:50:38;;;;;;;1.40;1.15;;;;;;;;;;4181516;34;20094;-76
2021/08/05 14:53:05;;;;;;;3.10;1.55;;;;;;;;;;4164893;34;20122;-78
2021/08/05 14:55:31;;;;;;;2.30;1.55;;;;;;;;;;4177204;34;20482;-76
2021/08/05 14:57:57;;;;;;;1.80;1.70;;;;;;;;;;4165553;34;20091;-77
2021/08/05 15:00:23;;;;;;;1.80;1.60;;;;;;;;;;4185235;34;20086;-75
2021/08/05 15:02:49;;;;;;;4.30;1.70;;;;;;;;;;4184468;34;20137;-69
2021/08/05 15:05:17;;;;;;;1.70;1.40;;;;;;;;;;4186814;34;20193;-69
2021/08/05 15:07:42;;;;;;;2.47;1.52;;;;;;;;;;4180786;34;20086;-70